PROFILE

 METAR AND TAF INFORMATION
ADDS - METARS form results

(0716 UTC 20 September 2020)
http://aviationweather.gov/metar/data/
 
SCEL 200700Z AUTO 00000KT 9999 NCD 08/06 Q1014
TAF SCEL 200400Z 2006/2106 15004KT 8000 NSC TX25/2019Z TN06/2011Z TEMPO 2008/2014 5000 BR BECMG 2015/2017 20012KT CAVOK BECMG 2102/2104 16005KT 

 AIRPORT MAP

 RUNWAY INFORMATION
Runway 17L Runway length 12303 ft Runway width 180 ft
Runway elevation 1550 ft Runway displaced threshold 0 ft Runway heading 178
Runway 35R Runway length 12303 ft Runway width 180 ft
Runway elevation 1555 ft Runway displaced threshold 1800 ft Runway heading 358
Runway 17R Runway length 12303 ft Runway width 148 ft
Runway elevation 1551 ft Runway displaced threshold 0 ft Runway heading 177
Runway 35L Runway length 12303 ft Runway width 148 ft
Runway elevation 1550 ft Runway displaced threshold 0 ft Runway heading 357

 AIRPORT FREQUENCIES
Type APP Name SANTIAGO A Frequency 126.3 MHZ
Type APP Name SANTIAGO A Frequency 128.1 MHZ
Type ATIS Name ATIS Frequency 132.1 MHZ
Type CLD Name CLNC DEL Frequency 121.7 MHZ
Type CNTR Name SANTIAGO C Frequency 129.7 MHZ
Type GND Name GND Frequency 122.2 MHZ
Type RDO Name SANTIAGO R Frequency 121.5 MHZ
Type RDO Name SANTIAGO R Frequency 664.9 MHZ
Type TWR Name SANTIAGO T Frequency 118.1 MHZ

 AIRPORT NEAR NAVIGATION AIDS
Type VOR-DME Name Santiago Frequency 116100 KHZ
Type VOR-DME Name Pudahuel Frequency 117200 KHZ
Type NDB Name Lo Castro Frequency 220 KHZ